Time;durP1;ratioP1;P1;durP2;ratioP2;P2;SDS_P1;SDS_P2;PMS_P1;PMS_P2;Temp;Humidity;BMP_temperature;BMP_pressure;BME280_temperature;BME280_humidity;BME280_pressure;Samples;Min_cycle;Max_cycle;Signal;HPM_P1;HPM_P2
2024/04/03 00:01:42;;;;;;;3.38;1.08;;;;;;;;;;6212493;23;20003;-92
2024/04/03 00:04:07;;;;;;;4.60;0.67;;;;;;;;;;6214341;23;20091;-92
2024/04/03 00:06:32;;;;;;;5.32;0.88;;;;;;;;;;6215454;23;20210;-92
2024/04/03 00:08:57;;;;;;;5.27;0.80;;;;;;;;;;6214121;23;20139;-92
2024/04/03 00:11:23;;;;;;;6.97;0.52;;;;;;;;;;6215725;23;20303;-91
2024/04/03 00:13:48;;;;;;;4.22;0.77;;;;;;;;;;6215457;23;20004;-90
2024/04/03 00:16:13;;;;;;;5.78;0.60;;;;;;;;;;6215394;23;19997;-91
2024/04/03 00:18:38;;;;;;;2.40;0.52;;;;;;;;;;6215518;23;20001;-91
2024/04/03 00:21:04;;;;;;;5.00;0.80;;;;;;;;;;6215363;23;20416;-92
2024/04/03 00:23:29;;;;;;;2.80;0.68;;;;;;;;;;6215438;23;20704;-91
2024/04/03 00:25:59;;;;;;;4.50;0.47;;;;;;;;;;6215542;23;20437;-92
2024/04/03 00:28:24;;;;;;;5.15;1.08;;;;;;;;;;6215447;23;20357;-91
2024/04/03 00:30:49;;;;;;;8.75;1.40;;;;;;;;;;6215369;23;20182;-92
2024/04/03 00:33:15;;;;;;;6.57;2.13;;;;;;;;;;6213612;23;20020;-91
2024/04/03 00:35:40;;;;;;;11.27;0.97;;;;;;;;;;6215822;23;20080;-93
2024/04/03 00:38:05;;;;;;;3.73;1.00;;;;;;;;;;6213780;23;20227;-91
2024/04/03 00:40:30;;;;;;;12.70;1.10;;;;;;;;;;6213177;23;20225;-90
2024/04/03 00:42:55;;;;;;;7.57;0.80;;;;;;;;;;6215056;23;20227;-91
2024/04/03 00:45:21;;;;;;;9.47;0.80;;;;;;;;;;6214940;23;20222;-91
2024/04/03 00:47:46;;;;;;;10.98;1.30;;;;;;;;;;6215090;23;20230;-90
2024/04/03 00:50:12;;;;;;;10.60;1.60;;;;;;;;;;6214810;23;20196;-90
2024/04/03 00:52:37;;;;;;;9.73;1.38;;;;;;;;;;6214653;23;20040;-90
2024/04/03 00:55:03;;;;;;;12.80;1.58;;;;;;;;;;6213998;23;20367;-90
2024/04/03 00:57:28;;;;;;;6.80;0.95;;;;;;;;;;6213258;23;20058;-90
2024/04/03 00:59:53;;;;;;;7.23;1.27;;;;;;;;;;6215348;23;20004;-89
2024/04/03 01:02:18;;;;;;;15.35;1.40;;;;;;;;;;6214824;23;20538;-90
2024/04/03 01:04:44;;;;;;;4.40;1.10;;;;;;;;;;6215022;23;20007;-91
2024/04/03 01:07:09;;;;;;;10.35;1.30;;;;;;;;;;6214667;23;20242;-90
2024/04/03 01:09:35;;;;;;;6.85;0.90;;;;;;;;;;6212040;23;20008;-91
2024/04/03 01:12:01;;;;;;;9.40;1.40;;;;;;;;;;6212997;23;20015;-91
2024/04/03 01:14:26;;;;;;;5.18;1.15;;;;;;;;;;6212833;23;20027;-90
2024/04/03 01:16:52;;;;;;;7.65;0.98;;;;;;;;;;6212925;23;19996;-91
2024/04/03 01:19:17;;;;;;;5.53;0.87;;;;;;;;;;6214483;23;20000;-91
2024/04/03 01:21:42;;;;;;;3.80;0.50;;;;;;;;;;6212874;23;20227;-91
2024/04/03 01:24:07;;;;;;;11.77;0.93;;;;;;;;;;6214301;23;20222;-91
2024/04/03 01:26:33;;;;;;;6.22;0.90;;;;;;;;;;6212325;23;20083;-90
2024/04/03 01:28:58;;;;;;;7.67;1.47;;;;;;;;;;6216584;23;19996;-90
2024/04/03 01:31:23;;;;;;;4.10;0.60;;;;;;;;;;6214379;23;20198;-91
2024/04/03 01:33:48;;;;;;;8.43;0.90;;;;;;;;;;6212794;23;20339;-91
2024/04/03 01:36:13;;;;;;;5.63;0.97;;;;;;;;;;6213054;23;20032;-90
2024/04/03 01:38:39;;;;;;;7.10;0.77;;;;;;;;;;6214500;23;20219;-90
2024/04/03 01:41:04;;;;;;;8.05;1.55;;;;;;;;;;6213460;23;19996;-91
2024/04/03 01:43:29;;;;;;;11.43;1.35;;;;;;;;;;6213160;23;20023;-90
2024/04/03 01:45:57;;;;;;;14.90;1.20;;;;;;;;;;6214924;23;19997;-90
2024/04/03 01:48:23;;;;;;;12.80;1.73;;;;;;;;;;6212682;23;20023;-91
2024/04/03 01:50:48;;;;;;;11.07;1.58;;;;;;;;;;6214527;23;20001;-91
2024/04/03 01:53:13;;;;;;;20.40;2.40;;;;;;;;;;6214784;23;20008;-91
2024/04/03 01:55:38;;;;;;;10.73;1.60;;;;;;;;;;6213554;23;20297;-90
2024/04/03 01:58:03;;;;;;;18.63;2.77;;;;;;;;;;6212892;23;20258;-90
2024/04/03 02:00:29;;;;;;;21.30;2.10;;;;;;;;;;6214635;23;20238;-91
2024/04/03 02:02:54;;;;;;;14.00;2.80;;;;;;;;;;6213215;23;20586;-91
2024/04/03 02:05:19;;;;;;;20.60;3.60;;;;;;;;;;6214636;23;20533;-90
2024/04/03 02:07:44;;;;;;;17.57;4.03;;;;;;;;;;6213082;23;20561;-90
2024/04/03 02:10:10;;;;;;;14.73;1.90;;;;;;;;;;6211910;23;20679;-93
2024/04/03 02:12:35;;;;;;;7.70;1.60;;;;;;;;;;6213013;23;20008;-91
2024/04/03 02:15:00;;;;;;;24.63;2.73;;;;;;;;;;6213602;23;20299;-89
2024/04/03 02:17:25;;;;;;;26.17;4.00;;;;;;;;;;6214054;23;20262;-90
2024/04/03 02:19:50;;;;;;;20.70;2.30;;;;;;;;;;6214331;23;20032;-89
2024/04/03 02:22:16;;;;;;;15.23;2.30;;;;;;;;;;6212677;23;20265;-89
2024/04/03 02:24:41;;;;;;;22.27;4.67;;;;;;;;;;6214082;23;20215;-89
2024/04/03 02:27:06;;;;;;;24.23;3.55;;;;;;;;;;6214100;23;20265;-89
2024/04/03 02:29:31;;;;;;;16.08;2.67;;;;;;;;;;6214370;23;19996;-90
2024/04/03 02:31:56;;;;;;;19.38;2.60;;;;;;;;;;6212647;23;20773;-89
2024/04/03 02:34:22;;;;;;;18.33;2.50;;;;;;;;;;6212543;23;20016;-89
2024/04/03 02:36:47;;;;;;;16.07;2.30;;;;;;;;;;6212386;23;20226;-89
2024/04/03 02:39:12;;;;;;;21.40;3.53;;;;;;;;;;6214119;23;20222;-89
2024/04/03 02:41:37;;;;;;;24.10;2.47;;;;;;;;;;6187578;23;20727;-89
2024/04/03 02:44:02;;;;;;;11.90;2.70;;;;;;;;;;6212614;23;20069;-89
2024/04/03 02:46:28;;;;;;;21.57;2.37;;;;;;;;;;6214371;23;20652;-90
2024/04/03 02:48:54;;;;;;;17.58;2.20;;;;;;;;;;6214248;23;20772;-89
2024/04/03 02:51:19;;;;;;;20.42;2.85;;;;;;;;;;6214111;23;20004;-89
2024/04/03 02:53:44;;;;;;;17.77;2.60;;;;;;;;;;6187441;23;20483;-89
2024/04/03 02:56:09;;;;;;;20.40;2.03;;;;;;;;;;6213921;23;20222;-90
2024/04/03 02:58:35;;;;;;;20.33;3.20;;;;;;;;;;6214114;23;20675;-89
2024/04/03 03:01:07;;;;;;;27.10;3.85;;;;;;;;;;6214115;23;20138;-90
2024/04/03 03:03:33;;;;;;;24.00;3.97;;;;;;;;;;6213872;23;19993;-89
2024/04/03 03:05:59;;;;;;;36.88;5.22;;;;;;;;;;6213706;23;20005;-89
2024/04/03 03:08:30;;;;;;;28.02;4.57;;;;;;;;;;6213968;23;20035;-89
2024/04/03 03:10:56;;;;;;;29.10;3.70;;;;;;;;;;6212289;23;20062;-90
2024/04/03 03:13:21;;;;;;;37.17;6.07;;;;;;;;;;6212114;23;20008;-89
2024/04/03 03:15:53;;;;;;;38.03;4.82;;;;;;;;;;6213813;23;19992;-89
2024/04/03 03:18:18;;;;;;;;;;;;;;;;;;6212733;23;20010;-90
2024/04/03 03:20:47;;;;;;;34.42;5.47;;;;;;;;;;6214001;23;19900;-89
2024/04/03 03:23:12;;;;;;;38.13;6.82;;;;;;;;;;6213821;23;20032;-90
2024/04/03 03:25:38;;;;;;;41.50;5.70;;;;;;;;;;6212067;23;20096;-89
2024/04/03 03:28:03;;;;;;;38.40;5.93;;;;;;;;;;6213805;23;20029;-89
2024/04/03 03:30:28;;;;;;;34.63;4.10;;;;;;;;;;6213763;23;20024;-89
2024/04/03 03:32:53;;;;;;;35.57;5.63;;;;;;;;;;6212221;23;20009;-89
2024/04/03 03:35:19;;;;;;;31.53;5.03;;;;;;;;;;6212236;23;20218;-90
2024/04/03 03:37:45;;;;;;;39.20;4.30;;;;;;;;;;6214683;23;20222;-89
2024/04/03 03:40:10;;;;;;;46.67;5.55;;;;;;;;;;6215479;23;20226;-90
2024/04/03 03:42:35;;;;;;;33.57;4.33;;;;;;;;;;6215879;23;20003;-90
2024/04/03 03:45:00;;;;;;;41.87;5.43;;;;;;;;;;6214471;23;20226;-90
2024/04/03 03:47:26;;;;;;;33.60;4.30;;;;;;;;;;6215662;23;20256;-90
2024/04/03 03:52:40;;;;;;;30.52;5.25;;;;;;;;;;6215590;23;20450;-89
2024/04/03 03:55:05;;;;;;;38.75;5.45;;;;;;;;;;6214098;23;20005;-90
2024/04/03 03:57:31;;;;;;;29.40;4.30;;;;;;;;;;6215476;23;20070;-89
2024/04/03 03:59:59;;;;;;;36.78;4.60;;;;;;;;;;6213802;23;20143;-90
2024/04/03 04:02:25;;;;;;;34.25;5.05;;;;;;;;;;6213893;23;19997;-89
2024/04/03 04:04:50;;;;;;;18.70;3.70;;;;;;;;;;6213839;23;20383;-90
2024/04/03 04:07:17;;;;;;;35.03;5.45;;;;;;;;;;6215371;23;20024;-89
2024/04/03 04:09:42;;;;;;;30.80;4.28;;;;;;;;;;6213821;23;20008;-90
2024/04/03 04:12:07;;;;;;;23.10;4.20;;;;;;;;;;6213846;23;20000;-90
2024/04/03 04:14:32;;;;;;;25.00;4.28;;;;;;;;;;6215504;23;20234;-90
2024/04/03 04:16:58;;;;;;;24.85;3.40;;;;;;;;;;6213841;23;20083;-89
2024/04/03 04:19:23;;;;;;;27.50;4.60;;;;;;;;;;6215136;23;20043;-90
2024/04/03 04:21:48;;;;;;;23.00;4.23;;;;;;;;;;6213488;23;20277;-89
2024/04/03 04:24:18;;;;;;;29.42;4.68;;;;;;;;;;6213904;23;20227;-90
2024/04/03 04:26:44;;;;;;;34.00;6.13;;;;;;;;;;6214106;23;20001;-90
2024/04/03 04:29:10;;;;;;;21.92;3.22;;;;;;;;;;6215216;23;20007;-89
2024/04/03 04:31:35;;;;;;;31.73;5.07;;;;;;;;;;6215256;23;19988;-91
2024/04/03 04:34:00;;;;;;;32.57;5.70;;;;;;;;;;6215133;23;20257;-89
2024/04/03 04:36:25;;;;;;;28.10;3.80;;;;;;;;;;6215230;23;20569;-89
2024/04/03 04:38:50;;;;;;;25.33;3.03;;;;;;;;;;6215119;23;20219;-90
2024/04/03 04:41:17;;;;;;;20.77;2.63;;;;;;;;;;6214942;23;20261;-89
2024/04/03 04:43:42;;;;;;;25.17;4.03;;;;;;;;;;6214971;23;20008;-91
2024/04/03 04:46:08;;;;;;;24.43;3.37;;;;;;;;;;6215165;23;19997;-90
2024/04/03 04:48:33;;;;;;;27.67;3.47;;;;;;;;;;6214439;23;20418;-90
2024/04/03 04:50:59;;;;;;;17.95;3.35;;;;;;;;;;6215115;23;20212;-90
2024/04/03 04:53:24;;;;;;;15.95;2.03;;;;;;;;;;6214962;23;20059;-90
2024/04/03 04:55:56;;;;;;;15.70;3.50;;;;;;;;;;6214744;23;20001;-90
2024/04/03 04:58:22;;;;;;;11.88;1.58;;;;;;;;;;6214987;23;20219;-90
2024/04/03 05:00:48;;;;;;;12.40;1.80;;;;;;;;;;6215020;23;20004;-90
2024/04/03 05:03:14;;;;;;;12.60;2.75;;;;;;;;;;6214893;23;20023;-91
2024/04/03 05:05:39;;;;;;;14.83;1.70;;;;;;;;;;6215075;23;20400;-90
2024/04/03 05:08:06;;;;;;;12.45;1.60;;;;;;;;;;6213240;23;20781;-90
2024/04/03 05:10:32;;;;;;;13.27;2.00;;;;;;;;;;6214782;23;20000;-91
2024/04/03 05:12:57;;;;;;;13.60;1.75;;;;;;;;;;6214703;23;20063;-90
2024/04/03 05:15:27;;;;;;;12.00;1.57;;;;;;;;;;6215037;23;20368;-91
2024/04/03 05:17:52;;;;;;;11.07;1.65;;;;;;;;;;6214868;23;20244;-90
2024/04/03 05:20:17;;;;;;;11.00;1.67;;;;;;;;;;6213272;23;20096;-91
2024/04/03 05:22:43;;;;;;;7.95;1.17;;;;;;;;;;6214755;23;20309;-91
2024/04/03 05:25:08;;;;;;;20.03;2.17;;;;;;;;;;6213625;23;20004;-91
2024/04/03 05:27:33;;;;;;;12.13;1.95;;;;;;;;;;6215097;23;20230;-90
2024/04/03 05:29:58;;;;;;;14.57;2.57;;;;;;;;;;6213335;23;20070;-91
2024/04/03 05:32:24;;;;;;;9.40;1.80;;;;;;;;;;6214764;23;20234;-91
2024/04/03 05:34:49;;;;;;;21.40;2.13;;;;;;;;;;6215159;23;20031;-90
2024/04/03 05:37:14;;;;;;;15.53;2.00;;;;;;;;;;6214773;23;20252;-90
2024/04/03 05:39:39;;;;;;;17.45;1.90;;;;;;;;;;6213467;23;20237;-90
2024/04/03 05:42:05;;;;;;;18.87;3.30;;;;;;;;;;6214915;23;20004;-91
2024/04/03 05:44:30;;;;;;;16.55;1.88;;;;;;;;;;6214683;23;20238;-91
2024/04/03 05:46:55;;;;;;;21.87;3.00;;;;;;;;;;6213437;23;20423;-90
2024/04/03 05:49:20;;;;;;;10.20;1.83;;;;;;;;;;6213190;23;20685;-91
2024/04/03 05:51:46;;;;;;;10.13;2.00;;;;;;;;;;6213046;23;20362;-91
2024/04/03 05:54:11;;;;;;;11.57;1.53;;;;;;;;;;6213171;23;20708;-91
2024/04/03 05:56:36;;;;;;;7.60;1.07;;;;;;;;;;6213038;23;20293;-91
2024/04/03 05:59:01;;;;;;;5.27;1.10;;;;;;;;;;6214742;23;20246;-91
2024/04/03 06:01:26;;;;;;;14.40;2.20;;;;;;;;;;6212843;23;20274;-91
2024/04/03 06:03:52;;;;;;;17.97;2.57;;;;;;;;;;6214751;23;19996;-91
2024/04/03 06:06:17;;;;;;;10.23;1.38;;;;;;;;;;6213142;23;20538;-91
2024/04/03 06:08:43;;;;;;;12.05;2.03;;;;;;;;;;6213094;23;20001;-91
2024/04/03 06:11:08;;;;;;;13.03;1.80;;;;;;;;;;6214485;23;20039;-91
2024/04/03 06:13:33;;;;;;;8.33;1.43;;;;;;;;;;6214656;23;20535;-90
2024/04/03 06:15:58;;;;;;;18.07;2.37;;;;;;;;;;6213155;23;20222;-91
2024/04/03 06:18:24;;;;;;;16.00;3.40;;;;;;;;;;6213126;23;20226;-91
2024/04/03 06:20:50;;;;;;;9.02;1.83;;;;;;;;;;6214338;23;20261;-91
2024/04/03 06:23:15;;;;;;;9.80;1.33;;;;;;;;;;6212938;23;20458;-90
2024/04/03 06:25:40;;;;;;;10.57;1.90;;;;;;;;;;6212820;23;19993;-92
2024/04/03 06:28:06;;;;;;;11.07;2.30;;;;;;;;;;6214363;23;20419;-93
2024/04/03 06:30:31;;;;;;;6.73;1.53;;;;;;;;;;6214443;23;20684;-92
2024/04/03 06:32:56;;;;;;;13.52;1.48;;;;;;;;;;6214176;23;20636;-89
2024/04/03 06:35:24;;;;;;;16.10;1.70;;;;;;;;;;6214620;23;19996;-94
2024/04/03 06:37:49;;;;;;;17.50;1.70;;;;;;;;;;6212844;23;20234;-93
2024/04/03 06:40:17;;;;;;;13.73;1.27;;;;;;;;;;6212165;23;20337;-93
2024/04/03 06:42:42;;;;;;;8.98;1.23;;;;;;;;;;6214302;23;20247;-93
2024/04/03 06:45:07;;;;;;;9.23;1.37;;;;;;;;;;6215331;23;19997;-91
2024/04/03 06:47:33;;;;;;;12.97;3.67;;;;;;;;;;6213492;23;20229;-92
2024/04/03 06:49:58;;;;;;;12.38;1.90;;;;;;;;;;6213286;23;20250;-94
2024/04/03 06:52:24;;;;;;;11.77;1.80;;;;;;;;;;6214163;23;20242;-91
2024/04/03 06:54:49;;;;;;;8.98;1.60;;;;;;;;;;6213501;23;20027;-91
2024/04/03 06:57:14;;;;;;;7.97;1.17;;;;;;;;;;6215032;23;20000;-94
2024/04/03 06:59:40;;;;;;;9.27;1.63;;;;;;;;;;6213193;23;20008;-92
2024/04/03 07:02:05;;;;;;;16.77;3.13;;;;;;;;;;6212711;23;20445;-92
2024/04/03 07:04:30;;;;;;;21.85;1.60;;;;;;;;;;6212451;23;20324;-92
2024/04/03 07:06:55;;;;;;;10.10;1.40;;;;;;;;;;6214557;23;19996;-92
2024/04/03 07:09:21;;;;;;;9.82;1.83;;;;;;;;;;6212537;23;20276;-90
2024/04/03 07:11:46;;;;;;;20.47;1.77;;;;;;;;;;6213790;23;20297;-95
2024/04/03 07:14:11;;;;;;;10.75;1.63;;;;;;;;;;6213033;23;20650;-90
2024/04/03 07:16:36;;;;;;;11.07;2.22;;;;;;;;;;6206765;23;20012;-90
2024/04/03 07:19:02;;;;;;;11.20;2.35;;;;;;;;;;6211025;23;20032;-91
2024/04/03 07:21:27;;;;;;;8.00;1.45;;;;;;;;;;6209102;23;20424;-92
2024/04/03 07:23:52;;;;;;;12.80;1.40;;;;;;;;;;6210901;23;20004;-92
2024/04/03 07:26:19;;;;;;;3.30;0.80;;;;;;;;;;6209665;23;20403;-92
2024/04/03 07:28:44;;;;;;;8.07;1.30;;;;;;;;;;6209454;23;20001;-91
2024/04/03 07:31:09;;;;;;;14.48;1.35;;;;;;;;;;6209749;23;20002;-91
2024/04/03 07:33:34;;;;;;;6.85;1.08;;;;;;;;;;6209974;23;20009;-92
2024/04/03 07:36:00;;;;;;;10.20;1.10;;;;;;;;;;6210094;23;20047;-93
2024/04/03 07:38:26;;;;;;;7.20;1.00;;;;;;;;;;6211129;23;20227;-93
2024/04/03 07:40:51;;;;;;;4.68;0.80;;;;;;;;;;6209084;23;19996;-94
2024/04/03 07:43:16;;;;;;;13.38;1.20;;;;;;;;;;6209493;23;20040;-91
2024/04/03 07:45:41;;;;;;;6.47;0.90;;;;;;;;;;6210243;23;19997;-95
2024/04/03 07:48:07;;;;;;;6.78;1.02;;;;;;;;;;6208962;23;20060;-91
2024/04/03 07:50:32;;;;;;;5.22;1.02;;;;;;;;;;6209809;23;19996;-94
2024/04/03 07:52:57;;;;;;;4.70;0.40;;;;;;;;;;6209832;23;20095;-94
2024/04/03 07:55:23;;;;;;;6.87;0.60;;;;;;;;;;6210030;23;20478;-95
2024/04/03 07:57:48;;;;;;;4.40;0.60;;;;;;;;;;6208185;23;20273;-90
2024/04/03 08:00:13;;;;;;;2.15;0.40;;;;;;;;;;6211482;23;20024;-91
2024/04/03 08:02:42;;;;;;;1.55;0.40;;;;;;;;;;6210957;23;20024;-92
2024/04/03 08:05:08;;;;;;;3.08;1.30;;;;;;;;;;6208895;23;19997;-91
2024/04/03 08:07:34;;;;;;;3.42;0.32;;;;;;;;;;6208319;23;20004;-91
2024/04/03 08:10:03;;;;;;;1.73;0.60;;;;;;;;;;6207598;23;20332;-91
2024/04/03 08:12:28;;;;;;;0.85;0.40;;;;;;;;;;6208308;23;20048;-91
2024/04/03 08:14:55;;;;;;;1.50;0.25;;;;;;;;;;6209337;23;20001;-91
2024/04/03 08:17:21;;;;;;;3.85;0.38;;;;;;;;;;6209969;23;20000;-90
2024/04/03 08:19:49;;;;;;;1.73;0.43;;;;;;;;;;6209814;23;20008;-90
2024/04/03 08:22:14;;;;;;;1.13;0.20;;;;;;;;;;6209805;23;20092;-88
2024/04/03 08:24:39;;;;;;;1.63;0.20;;;;;;;;;;6183586;23;20024;-91
2024/04/03 08:27:05;;;;;;;0.68;0.17;;;;;;;;;;6209617;23;20242;-91
2024/04/03 08:29:37;;;;;;;0.13;0.13;;;;;;;;;;6210338;23;20451;-91
2024/04/03 08:32:02;;;;;;;1.55;0.20;;;;;;;;;;6210805;23;20273;-91
2024/04/03 08:34:27;;;;;;;0.52;0.20;;;;;;;;;;6209563;23;20454;-92
2024/04/03 08:36:52;;;;;;;3.30;0.20;;;;;;;;;;6209951;23;20000;-91
2024/04/03 08:39:18;;;;;;;6.32;1.55;;;;;;;;;;6212161;23;20266;-92
2024/04/03 08:41:43;;;;;;;2.83;0.60;;;;;;;;;;6207135;23;20004;-91
2024/04/03 08:44:09;;;;;;;7.07;1.25;;;;;;;;;;6210186;23;20324;-89
2024/04/03 08:46:35;;;;;;;11.40;1.30;;;;;;;;;;6212775;23;20001;-89
2024/04/03 08:49:02;;;;;;;9.38;0.93;;;;;;;;;;6214472;23;19996;-89
2024/04/03 08:51:29;;;;;;;17.45;1.75;;;;;;;;;;6215160;23;19997;-89
2024/04/03 08:54:00;;;;;;;6.97;1.20;;;;;;;;;;6214591;23;20001;-89
2024/04/03 08:56:25;;;;;;;10.65;1.75;;;;;;;;;;6213451;23;20019;-89
2024/04/03 08:58:51;;;;;;;4.15;1.35;;;;;;;;;;6215263;23;20419;-89
2024/04/03 09:01:16;;;;;;;5.93;1.42;;;;;;;;;;6214710;23;20379;-89
2024/04/03 09:03:42;;;;;;;9.25;1.23;;;;;;;;;;6214223;23;20008;-90
2024/04/03 09:06:07;;;;;;;9.10;1.83;;;;;;;;;;6214419;23;20451;-89
2024/04/03 09:08:42;;;;;;;12.17;1.60;;;;;;;;;;6188203;23;20079;-89
2024/04/03 09:11:08;;;;;;;7.43;1.00;;;;;;;;;;6214527;23;20278;-89
2024/04/03 09:13:33;;;;;;;11.93;1.13;;;;;;;;;;6214341;23;20416;-89
2024/04/03 09:15:59;;;;;;;7.93;0.80;;;;;;;;;;6212651;23;20055;-88
2024/04/03 09:18:24;;;;;;;6.50;0.95;;;;;;;;;;6214519;23;20669;-89
2024/04/03 09:20:51;;;;;;;11.87;1.43;;;;;;;;;;6214852;23;20003;-89
2024/04/03 09:23:17;;;;;;;7.00;1.08;;;;;;;;;;6213019;23;20249;-88
2024/04/03 09:25:42;;;;;;;3.83;0.50;;;;;;;;;;6214298;23;19984;-89
2024/04/03 09:28:08;;;;;;;7.68;0.80;;;;;;;;;;6214302;23;20004;-89
2024/04/03 09:30:34;;;;;;;2.88;0.60;;;;;;;;;;6214355;23;20076;-89
2024/04/03 09:33:03;;;;;;;8.23;1.05;;;;;;;;;;6214293;23;20024;-89
2024/04/03 09:35:31;;;;;;;7.43;0.75;;;;;;;;;;6212573;23;20000;-89
2024/04/03 09:37:56;;;;;;;5.55;0.80;;;;;;;;;;6213212;23;20319;-89
2024/04/03 09:40:26;;;;;;;4.45;0.63;;;;;;;;;;6214960;23;20004;-89
2024/04/03 09:42:55;;;;;;;10.98;1.10;;;;;;;;;;6213049;23;20393;-90
2024/04/03 09:45:21;;;;;;;2.35;0.65;;;;;;;;;;6214659;23;19999;-89
2024/04/03 09:47:49;;;;;;;4.43;0.90;;;;;;;;;;6213073;23;20004;-89
2024/04/03 09:50:14;;;;;;;4.25;0.57;;;;;;;;;;6214588;23;19996;-88
2024/04/03 09:52:40;;;;;;;5.75;1.00;;;;;;;;;;6214375;23;20074;-89
2024/04/03 09:55:05;;;;;;;7.32;1.00;;;;;;;;;;6214383;23;19993;-90
2024/04/03 09:57:31;;;;;;;8.65;1.35;;;;;;;;;;6214376;23;20003;-90
2024/04/03 09:59:57;;;;;;;6.32;1.27;;;;;;;;;;6214615;23;20115;-88
2024/04/03 10:02:22;;;;;;;6.10;0.90;;;;;;;;;;6214464;23;20046;-88
2024/04/03 10:04:47;;;;;;;10.13;1.30;;;;;;;;;;6214459;23;20031;-89
2024/04/03 10:07:20;;;;;;;6.53;1.02;;;;;;;;;;6214394;23;20016;-89
2024/04/03 10:09:50;;;;;;;12.23;1.00;;;;;;;;;;6214377;23;19997;-88
2024/04/03 10:12:16;;;;;;;8.85;1.25;;;;;;;;;;6213924;23;20457;-89
2024/04/03 10:14:41;;;;;;;6.53;1.00;;;;;;;;;;6188964;23;20032;-88
2024/04/03 10:17:13;;;;;;;6.63;1.10;;;;;;;;;;6212638;23;20323;-89
2024/04/03 10:19:40;;;;;;;9.02;1.95;;;;;;;;;;6214265;23;20004;-88
2024/04/03 10:22:05;;;;;;;9.30;1.65;;;;;;;;;;6211970;23;20089;-89
2024/04/03 10:24:31;;;;;;;11.07;2.37;;;;;;;;;;6212298;23;20004;-89
2024/04/03 10:26:56;;;;;;;17.42;2.40;;;;;;;;;;6213980;23;20638;-89
2024/04/03 10:29:21;;;;;;;9.05;1.42;;;;;;;;;;6213970;23;19997;-89
2024/04/03 10:31:47;;;;;;;8.27;1.70;;;;;;;;;;6214181;23;20027;-89
2024/04/03 10:34:16;;;;;;;10.07;1.40;;;;;;;;;;6213606;23;20012;-90
2024/04/03 10:36:42;;;;;;;7.43;1.25;;;;;;;;;;6211784;23;20372;-88
2024/04/03 10:39:08;;;;;;;9.03;1.67;;;;;;;;;;6214216;23;20483;-89
2024/04/03 10:41:33;;;;;;;6.85;1.13;;;;;;;;;;6214252;23;20673;-89
2024/04/03 10:43:58;;;;;;;5.43;1.48;;;;;;;;;;6214248;23;20019;-89
2024/04/03 10:46:24;;;;;;;8.40;1.33;;;;;;;;;;6213381;23;20046;-89
2024/04/03 10:48:49;;;;;;;7.78;0.95;;;;;;;;;;6214228;23;20222;-90
2024/04/03 10:51:14;;;;;;;6.32;0.82;;;;;;;;;;6212152;23;20328;-89
2024/04/03 10:53:40;;;;;;;4.93;1.40;;;;;;;;;;6212355;23;20034;-90
2024/04/03 10:56:05;;;;;;;6.87;1.10;;;;;;;;;;6213006;23;20322;-89
2024/04/03 10:58:30;;;;;;;8.00;1.27;;;;;;;;;;6214776;23;20254;-91
2024/04/03 11:00:56;;;;;;;13.40;1.80;;;;;;;;;;6212788;23;20499;-90
2024/04/03 11:03:22;;;;;;;8.30;2.28;;;;;;;;;;6212576;23;20226;-90
2024/04/03 11:05:48;;;;;;;12.27;1.20;;;;;;;;;;6214510;23;19997;-90
2024/04/03 11:08:15;;;;;;;3.60;0.90;;;;;;;;;;6212619;23;20000;-90
2024/04/03 11:10:40;;;;;;;7.18;1.25;;;;;;;;;;6209951;23;20050;-90
2024/04/03 11:13:06;;;;;;;7.00;1.13;;;;;;;;;;6209534;23;20017;-91
2024/04/03 11:15:31;;;;;;;7.35;1.35;;;;;;;;;;6209230;23;19996;-91
2024/04/03 11:17:59;;;;;;;5.97;0.80;;;;;;;;;;6208942;23;20501;-91
2024/04/03 11:20:25;;;;;;;6.40;1.13;;;;;;;;;;6208586;23;20005;-89
2024/04/03 11:22:52;;;;;;;7.28;0.90;;;;;;;;;;6209035;23;20109;-91
2024/04/03 11:25:18;;;;;;;7.15;1.02;;;;;;;;;;6209242;23;20008;-90
2024/04/03 11:27:43;;;;;;;2.78;0.55;;;;;;;;;;6209348;23;20331;-91
2024/04/03 11:30:08;;;;;;;8.13;0.93;;;;;;;;;;6208958;23;20426;-91
2024/04/03 11:32:34;;;;;;;4.25;0.80;;;;;;;;;;6210351;23;20092;-91
2024/04/03 11:34:59;;;;;;;6.07;1.00;;;;;;;;;;6211413;23;20221;-90
2024/04/03 11:37:25;;;;;;;6.53;0.70;;;;;;;;;;6208853;23;20001;-91
2024/04/03 11:39:50;;;;;;;2.72;0.77;;;;;;;;;;6210810;23;20008;-90
2024/04/03 11:42:15;;;;;;;5.10;1.00;;;;;;;;;;6210307;23;20032;-91
2024/04/03 11:44:41;;;;;;;7.25;0.85;;;;;;;;;;6209203;23;20067;-91
2024/04/03 11:47:06;;;;;;;4.70;0.93;;;;;;;;;;6208866;23;20008;-91
2024/04/03 11:49:31;;;;;;;5.20;0.80;;;;;;;;;;6208653;23;20317;-91
2024/04/03 11:51:56;;;;;;;7.13;0.90;;;;;;;;;;6209899;23;20738;-90
2024/04/03 11:54:22;;;;;;;7.05;1.52;;;;;;;;;;6211092;23;20257;-91
2024/04/03 11:56:47;;;;;;;5.78;0.93;;;;;;;;;;6209994;23;20001;-91
2024/04/03 11:59:12;;;;;;;6.70;1.07;;;;;;;;;;6211995;23;20062;-91
2024/04/03 12:01:37;;;;;;;5.80;1.30;;;;;;;;;;6185512;23;20309;-90
2024/04/03 12:04:03;;;;;;;4.40;1.10;;;;;;;;;;6213014;23;20067;-91
2024/04/03 12:06:29;;;;;;;5.60;1.00;;;;;;;;;;6219238;23;20119;-90
2024/04/03 12:08:56;;;;;;;3.30;0.93;;;;;;;;;;6214004;23;20005;-90
2024/04/03 12:11:21;;;;;;;8.15;1.25;;;;;;;;;;6212258;23;20084;-93
2024/04/03 12:13:47;;;;;;;8.13;1.50;;;;;;;;;;6215203;23;20134;-94
2024/04/03 12:16:13;;;;;;;6.77;1.33;;;;;;;;;;6212262;23;20214;-90
2024/04/03 12:18:48;;;;;;;7.03;1.30;;;;;;;;;;6220120;23;20745;-90
2024/04/03 12:21:14;;;;;;;7.35;1.20;;;;;;;;;;6214718;23;19992;-90
2024/04/03 12:23:48;;;;;;;6.30;1.05;;;;;;;;;;6213511;23;20031;-96
2024/04/03 12:26:13;;;;;;;9.20;1.92;;;;;;;;;;6213722;23;19992;-95
2024/04/03 12:28:39;;;;;;;5.88;1.48;;;;;;;;;;6211864;23;20007;-91
2024/04/03 12:31:04;;;;;;;11.98;2.33;;;;;;;;;;6211984;23;20003;-91
2024/04/03 12:33:29;;;;;;;7.38;1.50;;;;;;;;;;6212690;23;20091;-90
2024/04/03 12:35:55;;;;;;;9.13;1.40;;;;;;;;;;6212023;23;20332;-91
2024/04/03 12:38:20;;;;;;;9.30;1.88;;;;;;;;;;6212185;23;20332;-90
2024/04/03 12:40:45;;;;;;;9.40;1.63;;;;;;;;;;6209913;23;20079;-90
2024/04/03 12:43:10;;;;;;;6.35;1.08;;;;;;;;;;6209799;23;20602;-90
2024/04/03 12:45:36;;;;;;;9.07;0.95;;;;;;;;;;6211108;23;20000;-90
2024/04/03 12:48:04;;;;;;;8.93;1.33;;;;;;;;;;6210160;23;20050;-90
2024/04/03 12:50:29;;;;;;;4.80;1.02;;;;;;;;;;6210703;23;20056;-90
2024/04/03 12:52:55;;;;;;;8.02;1.35;;;;;;;;;;6211705;23;19997;-91
2024/04/03 12:55:20;;;;;;;7.55;1.73;;;;;;;;;;6210829;23;20083;-90
2024/04/03 12:57:46;;;;;;;10.40;1.55;;;;;;;;;;6211013;23;20030;-91
2024/04/03 13:00:11;;;;;;;10.68;1.50;;;;;;;;;;6211551;23;20008;-91
2024/04/03 13:02:37;;;;;;;8.18;1.50;;;;;;;;;;6213185;23;20000;-91
2024/04/03 13:05:02;;;;;;;8.10;1.50;;;;;;;;;;6213471;23;20090;-90
2024/04/03 13:07:27;;;;;;;10.50;1.48;;;;;;;;;;6186750;23;20234;-91
2024/04/03 13:09:54;;;;;;;6.27;1.20;;;;;;;;;;6210654;23;20390;-91
2024/04/03 13:12:19;;;;;;;7.30;2.22;;;;;;;;;;6210968;23;20470;-91
2024/04/03 13:14:44;;;;;;;7.35;1.65;;;;;;;;;;6214258;23;19996;-90
2024/04/03 13:17:10;;;;;;;8.00;1.63;;;;;;;;;;6215193;23;19993;-91
2024/04/03 13:19:35;;;;;;;8.65;1.38;;;;;;;;;;6213834;23;19997;-91
2024/04/03 13:22:00;;;;;;;9.77;1.20;;;;;;;;;;6215319;23;20470;-90
2024/04/03 13:24:25;;;;;;;9.80;1.20;;;;;;;;;;6214874;23;20305;-91
2024/04/03 13:26:50;;;;;;;8.83;1.40;;;;;;;;;;6213424;23;20301;-90
2024/04/03 13:29:16;;;;;;;10.43;2.27;;;;;;;;;;6215271;23;20282;-91
2024/04/03 13:31:41;;;;;;;6.85;1.05;;;;;;;;;;6215124;23;20249;-90
2024/04/03 13:34:08;;;;;;;10.38;2.20;;;;;;;;;;6213722;23;20040;-90
2024/04/03 13:36:33;;;;;;;18.00;3.08;;;;;;;;;;6213360;23;20320;-91
2024/04/03 13:38:58;;;;;;;6.25;1.33;;;;;;;;;;6213227;23;20005;-91
2024/04/03 13:41:24;;;;;;;4.83;1.00;;;;;;;;;;6213643;23;20000;-92
2024/04/03 13:43:49;;;;;;;5.77;1.20;;;;;;;;;;6213179;23;20238;-91
2024/04/03 13:46:14;;;;;;;7.78;0.82;;;;;;;;;;6214262;23;20210;-92
2024/04/03 13:48:40;;;;;;;9.43;1.00;;;;;;;;;;6212898;23;20005;-92
2024/04/03 13:51:08;;;;;;;8.80;1.38;;;;;;;;;;6214505;23;20206;-91
2024/04/03 13:53:33;;;;;;;7.05;1.00;;;;;;;;;;6213367;23;20005;-91
2024/04/03 13:55:59;;;;;;;6.95;1.63;;;;;;;;;;6214519;23;20070;-91
2024/04/03 13:58:25;;;;;;;8.85;2.15;;;;;;;;;;6213094;23;20078;-91
2024/04/03 14:00:50;;;;;;;12.55;2.08;;;;;;;;;;6213091;23;20019;-91
2024/04/03 14:03:16;;;;;;;4.68;0.95;;;;;;;;;;6214870;23;20019;-92
2024/04/03 14:05:43;;;;;;;14.63;4.05;;;;;;;;;;6212772;23;20079;-92
2024/04/03 14:08:09;;;;;;;7.85;1.10;;;;;;;;;;6212687;23;20076;-91
2024/04/03 14:10:34;;;;;;;4.30;0.70;;;;;;;;;;6213119;23;20027;-91
2024/04/03 14:12:59;;;;;;;4.18;0.88;;;;;;;;;;6212907;23;20001;-91
2024/04/03 14:15:24;;;;;;;4.83;0.90;;;;;;;;;;6212583;23;20005;-91
2024/04/03 14:17:50;;;;;;;5.83;0.80;;;;;;;;;;6212538;23;20222;-91
2024/04/03 14:20:15;;;;;;;5.80;1.83;;;;;;;;;;6213057;23;20222;-91
2024/04/03 14:22:40;;;;;;;8.53;1.30;;;;;;;;;;6214325;23;20226;-90
2024/04/03 14:25:05;;;;;;;5.18;0.88;;;;;;;;;;6212783;23;20237;-91
2024/04/03 14:27:32;;;;;;;8.10;1.00;;;;;;;;;;6213872;23;20054;-91
2024/04/03 14:29:58;;;;;;;4.40;0.90;;;;;;;;;;6212778;23;20523;-91
2024/04/03 14:32:23;;;;;;;9.93;1.10;;;;;;;;;;6214344;23;20020;-91